createdAt,value
2018-01-19T00:00:00.545Z,31.20
2018-01-19T00:01:01.197Z,28.30
2018-01-19T00:02:21.652Z,29.40
2018-01-19T00:03:22.402Z,32.40
2018-01-19T00:04:22.031Z,33.10
2018-01-19T00:05:22.601Z,29.80
2018-01-19T00:06:22.192Z,27.70
2018-01-19T00:07:21.527Z,34.00
2018-01-19T00:08:21.901Z,28.50
2018-01-19T00:09:22.121Z,30.50
2018-01-19T00:10:22.490Z,34.30
2018-01-19T00:11:22.285Z,35.90
2018-01-19T00:12:22.199Z,32.60
2018-01-19T00:13:22.619Z,37.70
2018-01-19T00:14:22.395Z,37.60
2018-01-19T00:15:21.939Z,38.10
2018-01-19T00:16:22.570Z,42.50
2018-01-19T00:17:22.009Z,43.10
2018-01-19T00:18:22.882Z,39.00
2018-01-19T00:19:22.539Z,39.30
2018-01-19T00:20:22.245Z,48.40
2018-01-19T00:21:22.732Z,35.80
2018-01-19T00:22:22.546Z,36.40
2018-01-19T00:23:22.007Z,45.50
2018-01-19T00:24:22.624Z,42.50
2018-01-19T00:25:22.395Z,50.70
2018-01-19T00:26:21.751Z,45.70
2018-01-19T00:27:22.487Z,45.70
2018-01-19T00:28:21.788Z,43.20
2018-01-19T00:29:22.379Z,45.80
2018-01-19T00:30:21.756Z,45.50
2018-01-19T00:31:22.342Z,49.20
2018-01-19T00:32:21.978Z,48.00
2018-01-19T00:33:22.670Z,50.10
2018-01-19T00:34:22.172Z,43.80
2018-01-19T00:35:22.445Z,44.70
2018-01-19T00:36:22.072Z,44.70
2018-01-19T00:37:22.942Z,47.80
2018-01-19T00:38:22.671Z,42.80
2018-01-19T00:39:22.107Z,45.30
2018-01-19T00:40:22.537Z,52.90
2018-01-19T00:41:21.813Z,54.20
2018-01-19T00:42:22.324Z,50.30
2018-01-19T00:43:21.585Z,52.50
2018-01-19T00:44:22.075Z,45.10
2018-01-19T00:45:22.595Z,46.50
2018-01-19T00:46:21.864Z,47.70
2018-01-19T00:47:22.273Z,42.90
2018-01-19T00:48:21.521Z,46.80
2018-01-19T00:49:21.786Z,53.30
2018-01-19T00:50:22.687Z,47.50
2018-01-19T00:51:22.181Z,50.90
2018-01-19T00:52:21.969Z,47.60
2018-01-19T00:53:22.292Z,50.90
2018-01-19T00:54:21.582Z,53.00
2018-01-19T00:55:22.320Z,51.90
2018-01-19T00:56:21.715Z,51.90
2018-01-19T00:57:22.395Z,47.40
2018-01-19T00:58:22.445Z,52.20
2018-01-19T00:59:22.318Z,56.10
2018-01-19T01:00:43.743Z,49.90
2018-01-19T01:01:44.234Z,48.70
2018-01-19T01:03:05.287Z,50.10
2018-01-19T01:04:06.055Z,54.00
2018-01-19T01:05:05.198Z,55.60
2018-01-19T01:06:05.998Z,56.00
2018-01-19T01:07:05.390Z,54.00
2018-01-19T01:08:06.096Z,55.40
2018-01-19T01:09:05.378Z,54.00
2018-01-19T01:10:05.500Z,49.80
2018-01-19T01:11:06.354Z,55.90
2018-01-19T01:12:05.826Z,56.00
2018-01-19T01:13:05.383Z,57.00
2018-01-19T01:14:05.819Z,61.80
2018-01-19T01:15:05.715Z,62.10
2018-01-19T01:16:05.215Z,61.30
2018-01-19T01:17:05.926Z,60.80
2018-01-19T01:18:05.866Z,60.80
2018-01-19T01:19:26.539Z,60.50
2018-01-19T01:20:27.202Z,61.50
2018-01-19T01:21:26.854Z,60.40
2018-01-19T01:22:27.291Z,65.90
2018-01-19T01:23:26.786Z,70.40
2018-01-19T01:24:27.184Z,69.90
2018-01-19T01:25:26.666Z,66.10
2018-01-19T01:26:26.934Z,67.70
2018-01-19T01:27:27.581Z,73.00
2018-01-19T01:28:27.173Z,69.60
2018-01-19T01:29:26.692Z,73.50
2018-01-19T01:30:27.096Z,72.00
2018-01-19T01:31:27.604Z,66.00
2018-01-19T01:32:26.892Z,66.40
2018-01-19T01:33:27.311Z,67.10
2018-01-19T01:34:26.582Z,74.20
2018-01-19T01:35:26.980Z,73.90
2018-01-19T01:36:27.606Z,80.50
2018-01-19T01:37:26.831Z,79.50
2018-01-19T01:38:27.616Z,77.30
2018-01-19T01:39:27.484Z,78.60
2018-01-19T01:40:26.739Z,76.60
2018-01-19T01:41:27.452Z,77.50
2018-01-19T01:42:26.866Z,73.60
2018-01-19T01:43:27.420Z,73.20
2018-01-19T01:44:27.230Z,74.00
2018-01-19T01:45:27.003Z,78.50
2018-01-19T01:46:27.342Z,79.60
2018-01-19T01:47:27.222Z,75.60
2018-01-19T01:48:48.123Z,80.50
2018-01-19T01:49:48.919Z,74.20
2018-01-19T01:50:48.347Z,73.20
2018-01-19T01:51:48.239Z,80.50
2018-01-19T01:52:48.969Z,84.90
2018-01-19T01:53:48.403Z,80.10
2018-01-19T01:54:48.971Z,78.00
2018-01-19T01:55:48.952Z,80.10
2018-01-19T01:56:48.359Z,80.60
2018-01-19T01:57:48.233Z,91.00
2018-01-19T01:58:48.693Z,90.50
2018-01-19T01:59:48.492Z,87.10
2018-01-19T02:00:49.183Z,81.80
2018-01-19T02:01:48.946Z,90.20
2018-01-19T02:02:48.634Z,94.90
2018-01-19T02:03:48.118Z,103.00
2018-01-19T02:04:48.544Z,92.70
2018-01-19T02:05:48.029Z,96.20
2018-01-19T02:06:48.483Z,85.10
2018-01-19T02:07:48.258Z,98.40
2018-01-19T02:08:48.681Z,110.00
2018-01-19T02:09:48.366Z,94.70
2018-01-19T02:10:48.167Z,95.60
2018-01-19T02:11:48.475Z,106.90
2018-01-19T02:12:48.884Z,97.90
2018-01-19T02:13:48.333Z,101.20
2018-01-19T02:14:48.157Z,100.90
2018-01-19T02:15:48.980Z,106.20
2018-01-19T02:16:48.675Z,112.80
2018-01-19T02:17:48.682Z,106.00
2018-01-19T02:18:48.339Z,105.40
2018-01-19T02:19:48.601Z,96.90
2018-01-19T02:20:48.343Z,105.50
2018-01-19T02:21:48.544Z,110.20
2018-01-19T02:22:48.081Z,109.20
2018-01-19T02:23:48.673Z,115.20
2018-01-19T02:24:47.947Z,103.00
2018-01-19T02:25:48.445Z,103.40
2018-01-19T02:26:47.988Z,99.10
2018-01-19T02:27:48.653Z,100.70
2018-01-19T02:28:48.396Z,106.00
2018-01-19T02:29:48.169Z,107.90
2018-01-19T02:30:48.652Z,103.10
2018-01-19T02:31:47.998Z,103.00
2018-01-19T02:32:48.687Z,108.70
2018-01-19T02:33:48.032Z,105.60
2018-01-19T02:34:48.540Z,106.30
2018-01-19T02:35:47.946Z,100.20
2018-01-19T02:36:48.734Z,100.30
2018-01-19T02:37:48.572Z,94.40
2018-01-19T02:38:48.263Z,98.20
2018-01-19T02:39:48.891Z,101.50
2018-01-19T02:40:48.675Z,104.80
2018-01-19T02:41:48.376Z,105.30
2018-01-19T02:42:48.600Z,105.10
2018-01-19T02:43:48.135Z,105.30
2018-01-19T02:44:48.494Z,101.50
2018-01-19T02:45:48.312Z,120.20
2018-01-19T02:46:48.739Z,102.80
2018-01-19T02:47:48.302Z,110.60
2018-01-19T02:48:47.657Z,108.20
2018-01-19T02:49:48.072Z,110.70
2018-01-19T02:50:48.353Z,106.20
2018-01-19T02:51:48.144Z,101.40
2018-01-19T02:52:48.964Z,111.30
2018-01-19T02:53:48.275Z,106.50
2018-01-19T02:54:49.049Z,115.70
2018-01-19T02:55:48.492Z,106.00
2018-01-19T02:56:48.647Z,107.40
2018-01-19T02:58:09.265Z,117.10
2018-01-19T02:59:09.620Z,115.90
2018-01-19T03:00:08.944Z,109.20
2018-01-19T03:01:09.747Z,112.70
2018-01-19T03:02:09.537Z,113.70
2018-01-19T03:03:10.028Z,114.00
2018-01-19T03:04:09.739Z,117.40
2018-01-19T03:05:09.557Z,118.70
2018-01-19T03:06:09.286Z,115.80
2018-01-19T03:07:09.990Z,120.50
2018-01-19T03:08:09.285Z,114.90
2018-01-19T03:09:09.821Z,123.50
2018-01-19T03:10:09.605Z,121.20
2018-01-19T03:11:09.032Z,126.40
2018-01-19T03:12:09.672Z,127.60
2018-01-19T03:13:09.000Z,133.30
2018-01-19T03:14:09.140Z,130.30
2018-01-19T03:15:09.839Z,138.80
2018-01-19T03:16:09.379Z,139.00
2018-01-19T03:17:09.733Z,132.70
2018-01-19T03:18:09.428Z,134.60
2018-01-19T03:19:10.117Z,126.60
2018-01-19T03:20:09.921Z,119.80
2018-01-19T03:21:09.720Z,132.30
2018-01-19T03:22:09.051Z,118.80
2018-01-19T03:23:09.553Z,124.60
2018-01-19T03:24:09.773Z,128.50
2018-01-19T03:25:09.378Z,124.50
2018-01-19T03:26:09.607Z,132.60
2018-01-19T03:27:08.951Z,125.30
2018-01-19T03:28:30.703Z,117.40
2018-01-19T03:29:31.094Z,128.60
2018-01-19T03:30:30.828Z,125.50
2018-01-19T03:31:30.355Z,127.20
2018-01-19T03:32:31.133Z,136.00
2018-01-19T03:33:30.622Z,131.70
2018-01-19T03:34:31.299Z,130.30
2018-01-19T03:35:30.768Z,132.00
2018-01-19T03:36:31.255Z,133.30
2018-01-19T03:37:30.475Z,138.40
2018-01-19T03:38:30.665Z,135.50
2018-01-19T03:39:31.102Z,140.00
2018-01-19T03:40:30.373Z,134.50
2018-01-19T03:41:30.675Z,127.10
2018-01-19T03:42:31.177Z,142.60
2018-01-19T03:43:30.986Z,139.00
2018-01-19T03:44:52.802Z,147.20
2018-01-19T03:46:36.263Z,138.90
2018-01-19T03:47:37.267Z,151.70
2018-01-19T03:48:37.062Z,145.30
2018-01-19T03:49:36.462Z,148.40
2018-01-19T03:50:37.163Z,140.50
2018-01-19T03:51:36.736Z,145.60
2018-01-19T03:52:37.681Z,137.80
2018-01-19T03:53:37.700Z,141.80
2018-01-19T03:54:37.504Z,138.90
2018-01-19T03:55:37.227Z,142.70
2018-01-19T03:56:36.972Z,138.30
2018-01-19T03:57:37.208Z,138.20
2018-01-19T03:58:36.644Z,136.00
2018-01-19T03:59:37.464Z,140.10
2018-01-19T04:00:36.819Z,135.30
2018-01-19T04:01:36.287Z,137.70
2018-01-19T04:02:36.775Z,126.80
2018-01-19T04:03:37.473Z,130.60
2018-01-19T04:04:37.283Z,137.30
2018-01-19T04:05:36.648Z,131.60
2018-01-19T04:06:37.195Z,130.40
2018-01-19T04:07:36.596Z,141.00
2018-01-19T04:08:36.781Z,125.80
2018-01-19T04:09:37.807Z,138.90
2018-01-19T04:10:37.396Z,136.30
2018-01-19T04:11:36.836Z,136.50
2018-01-19T04:12:37.654Z,133.40
2018-01-19T04:13:36.948Z,123.60
2018-01-19T04:14:36.420Z,123.50
2018-01-19T04:15:36.859Z,135.40
2018-01-19T04:16:36.568Z,130.10
2018-01-19T04:17:37.236Z,128.60
2018-01-19T04:18:36.888Z,125.80
2018-01-19T04:19:37.188Z,122.00
2018-01-19T04:20:36.914Z,129.30
2018-01-19T04:21:37.342Z,131.30
2018-01-19T04:22:36.904Z,132.00
2018-01-19T04:23:37.514Z,123.50
2018-01-19T04:24:37.266Z,127.00
2018-01-19T04:25:36.469Z,119.50
2018-01-19T04:26:36.630Z,119.60
2018-01-19T04:27:37.381Z,117.80
2018-01-19T04:28:36.712Z,111.30
2018-01-19T04:29:37.242Z,111.70
2018-01-19T04:30:36.501Z,106.70
2018-01-19T04:31:36.990Z,110.30
2018-01-19T04:32:37.150Z,106.00
2018-01-19T04:33:36.456Z,106.50
2018-01-19T04:34:36.819Z,103.60
2018-01-19T04:35:37.480Z,106.00
2018-01-19T04:36:37.207Z,115.10
2018-01-19T04:37:36.588Z,100.20
2018-01-19T04:38:37.382Z,107.80
2018-01-19T04:39:37.341Z,104.20
2018-01-19T04:40:36.865Z,111.60
2018-01-19T04:41:37.434Z,107.70
2018-01-19T04:42:36.916Z,108.50
2018-01-19T04:43:37.452Z,107.90
2018-01-19T04:44:36.660Z,106.40
2018-01-19T04:45:37.134Z,108.10
2018-01-19T04:46:36.582Z,104.10
2018-01-19T04:47:37.364Z,105.20
2018-01-19T04:48:37.060Z,112.60
2018-01-19T04:49:36.577Z,102.30
2018-01-19T04:50:59.056Z,103.80
2018-01-19T04:51:59.389Z,101.60
2018-01-19T04:52:58.634Z,103.10
2018-01-19T04:53:59.215Z,99.50
2018-01-19T04:54:58.916Z,101.00
2018-01-19T04:55:59.590Z,99.30
2018-01-19T04:56:59.095Z,93.30
2018-01-19T04:57:59.448Z,94.30
2018-01-19T04:58:58.616Z,91.90
2018-01-19T04:59:59.538Z,93.00
2018-01-19T05:00:59.129Z,93.80
2018-01-19T05:01:59.189Z,89.30
2018-01-19T05:02:59.375Z,90.60
2018-01-19T05:03:58.756Z,88.60
2018-01-19T05:04:59.211Z,87.40
2018-01-19T05:05:58.547Z,86.20
2018-01-19T05:06:59.063Z,89.70
2018-01-19T05:07:59.851Z,88.70
2018-01-19T05:08:59.210Z,81.50
2018-01-19T05:10:19.962Z,80.90
2018-01-19T05:11:20.627Z,85.20
2018-01-19T05:12:19.999Z,82.90
2018-01-19T05:13:20.303Z,78.50
2018-01-19T05:14:20.717Z,78.60
2018-01-19T05:15:19.967Z,75.60
2018-01-19T05:16:20.775Z,79.50
2018-01-19T05:17:20.326Z,83.20
2018-01-19T05:18:21.224Z,82.00
2018-01-19T05:19:20.327Z,78.90
2018-01-19T05:20:20.942Z,73.80
2018-01-19T05:21:41.681Z,77.80
2018-01-19T05:22:42.515Z,74.20
2018-01-19T05:23:41.790Z,78.30
2018-01-19T05:24:41.876Z,75.20
2018-01-19T05:26:03.961Z,72.70
2018-01-19T05:27:04.186Z,73.60
2018-01-19T05:28:04.114Z,69.20
2018-01-19T05:29:04.770Z,71.70
2018-01-19T05:30:04.140Z,75.00
2018-01-19T05:31:04.824Z,67.80
2018-01-19T05:32:25.504Z,69.60
2018-01-19T05:33:25.689Z,75.10
2018-01-19T05:34:26.070Z,72.80
2018-01-19T05:35:26.751Z,66.50
2018-01-19T05:36:26.104Z,75.40
2018-01-19T05:37:26.652Z,67.50
2018-01-19T05:38:47.631Z,66.10
2018-01-19T05:39:47.871Z,68.90
2018-01-19T05:40:48.514Z,73.50
2018-01-19T05:41:48.011Z,71.10
2018-01-19T05:42:48.249Z,67.70
2018-01-19T05:43:49.648Z,66.40
2018-01-19T05:44:49.319Z,67.80
2018-01-19T05:45:48.179Z,69.50
2018-01-19T05:46:48.695Z,63.70
2018-01-19T05:48:09.476Z,64.40
2018-01-19T05:49:10.234Z,69.60
2018-01-19T05:50:10.917Z,68.30
2018-01-19T05:51:16.856Z,70.40
2018-01-19T05:52:10.212Z,63.50
2018-01-19T05:53:09.989Z,64.70
2018-01-19T05:54:10.565Z,71.30
2018-01-19T05:55:10.304Z,66.20
2018-01-19T05:56:09.810Z,69.00
2018-01-19T05:57:10.430Z,67.40
2018-01-19T05:58:09.846Z,64.80
2018-01-19T05:59:10.210Z,66.10
2018-01-19T06:00:32.096Z,66.50
2018-01-19T06:01:32.584Z,66.40
2018-01-19T06:02:32.664Z,62.40
2018-01-19T06:03:53.738Z,67.30
2018-01-19T06:05:16.030Z,61.40
2018-01-19T06:06:16.894Z,65.60
2018-01-19T06:07:16.469Z,63.50
2018-01-19T06:08:16.798Z,62.60
2018-01-19T06:09:16.036Z,63.20
2018-01-19T06:10:37.422Z,62.00
2018-01-19T06:11:38.488Z,62.60
2018-01-19T06:12:37.667Z,60.50
2018-01-19T06:13:38.206Z,62.20
2018-01-19T06:14:37.794Z,60.20
2018-01-19T06:15:38.207Z,65.50
2018-01-19T06:16:37.818Z,62.80
2018-01-19T06:17:38.682Z,60.00
2018-01-19T06:18:37.913Z,69.80
2018-01-19T06:19:39.448Z,60.10
2018-01-19T06:20:38.437Z,65.00
2018-01-19T06:21:39.632Z,69.10
2018-01-19T06:22:38.458Z,68.40
2018-01-19T06:23:38.229Z,62.10
2018-01-19T06:24:37.782Z,66.60
2018-01-19T06:25:39.270Z,64.80
2018-01-19T06:26:38.220Z,65.90
2018-01-19T06:27:38.359Z,65.90
2018-01-19T06:28:38.379Z,67.50
2018-01-19T06:29:37.898Z,69.50
2018-01-19T06:30:38.390Z,70.40
2018-01-19T06:31:59.310Z,68.70
2018-01-19T06:33:21.112Z,69.30
2018-01-19T06:34:21.813Z,67.60
2018-01-19T06:35:21.131Z,67.60
2018-01-19T06:36:21.022Z,68.50
2018-01-19T06:37:21.890Z,60.20
2018-01-19T06:38:21.318Z,59.60
2018-01-19T06:39:21.961Z,58.60
2018-01-19T06:40:21.583Z,58.90
2018-01-19T06:41:21.146Z,56.10
2018-01-19T06:42:21.285Z,55.50
2018-01-19T06:43:20.762Z,55.80
2018-01-19T06:44:21.074Z,49.90
2018-01-19T06:45:21.928Z,51.50
2018-01-19T06:46:21.501Z,52.50
2018-01-19T06:47:20.728Z,51.80
2018-01-19T06:48:21.140Z,54.30
2018-01-19T06:49:20.715Z,51.80
2018-01-19T06:50:25.380Z,54.30
2018-01-19T06:51:20.891Z,46.30
2018-01-19T06:52:21.776Z,43.50
2018-01-19T06:53:21.333Z,44.70
2018-01-19T06:54:20.912Z,46.10
2018-01-19T06:55:21.897Z,46.20
2018-01-19T06:56:24.411Z,46.30
2018-01-19T06:57:21.005Z,45.80
2018-01-19T06:58:42.660Z,44.70
2018-01-19T06:59:43.051Z,43.40
2018-01-19T07:00:43.509Z,39.70
2018-01-19T07:01:44.287Z,41.80
2018-01-19T07:03:04.156Z,40.50
2018-01-19T07:04:04.915Z,44.70
2018-01-19T07:05:05.022Z,46.30
2018-01-19T07:06:04.352Z,49.50
2018-01-19T07:07:04.521Z,48.60
2018-01-19T07:08:04.874Z,48.60
2018-01-19T07:09:04.132Z,39.10
2018-01-19T07:10:04.913Z,43.10
2018-01-19T07:11:04.250Z,46.00
2018-01-19T07:12:04.406Z,44.00
2018-01-19T07:13:04.684Z,52.00
2018-01-19T07:14:04.841Z,47.20
2018-01-19T07:15:04.609Z,46.50
2018-01-19T07:16:04.993Z,45.70
2018-01-19T07:17:04.704Z,50.20
2018-01-19T07:18:04.919Z,48.60
2018-01-19T07:19:04.790Z,53.10
2018-01-19T07:20:04.861Z,49.50
2018-01-19T07:21:26.472Z,55.30
2018-01-19T07:22:27.086Z,55.20
2018-01-19T07:23:27.230Z,58.00
2018-01-19T07:24:26.535Z,53.40
2018-01-19T07:25:27.009Z,57.30
2018-01-19T07:26:27.750Z,55.80
2018-01-19T07:27:27.044Z,55.60
2018-01-19T07:28:27.525Z,59.60
2018-01-19T07:29:27.392Z,58.30
2018-01-19T07:30:27.524Z,59.90
2018-01-19T07:31:27.450Z,63.20
2018-01-19T07:32:26.869Z,64.30
2018-01-19T07:33:27.812Z,64.00
2018-01-19T07:34:27.774Z,58.20
2018-01-19T07:35:49.699Z,56.20
2018-01-19T07:36:49.059Z,60.80
2018-01-19T07:37:48.595Z,61.00
2018-01-19T07:38:48.880Z,59.30
2018-01-19T07:39:49.387Z,66.40
2018-01-19T07:40:48.595Z,64.40
2018-01-19T07:41:49.444Z,60.40
2018-01-19T07:42:49.226Z,66.40
2018-01-19T07:43:48.311Z,62.70
2018-01-19T07:44:48.602Z,65.70
2018-01-19T07:45:49.309Z,62.10
2018-01-19T07:46:49.357Z,69.90
2018-01-19T07:48:10.882Z,62.90
2018-01-19T07:49:11.627Z,63.50
2018-01-19T07:50:11.179Z,61.80
2018-01-19T07:51:32.584Z,63.60
2018-01-19T07:52:33.001Z,60.80
2018-01-19T07:53:32.935Z,62.50
2018-01-19T07:54:32.620Z,67.60
2018-01-19T07:55:33.727Z,63.90
2018-01-19T07:56:32.539Z,67.60
2018-01-19T07:57:34.453Z,65.30
2018-01-19T07:58:33.391Z,64.60
2018-01-19T07:59:54.759Z,70.20
2018-01-19T08:00:55.571Z,66.40
2018-01-19T08:01:55.348Z,66.00
2018-01-19T08:02:54.805Z,66.70
2018-01-19T08:03:55.348Z,69.80
2018-01-19T08:04:54.951Z,68.30
2018-01-19T08:06:16.736Z,75.40
2018-01-19T08:07:17.984Z,70.90
2018-01-19T08:08:18.057Z,69.60
2018-01-19T08:09:17.741Z,65.70
2018-01-19T08:10:17.436Z,64.50
2018-01-19T08:11:38.707Z,70.10
2018-01-19T08:12:39.151Z,72.80
2018-01-19T08:13:38.616Z,70.00
2018-01-19T08:14:39.006Z,76.90
2018-01-19T08:15:39.021Z,70.70
2018-01-19T08:16:38.870Z,67.00
2018-01-19T08:17:38.523Z,68.20
2018-01-19T08:18:38.813Z,69.40
2018-01-19T08:19:39.614Z,63.80
2018-01-19T08:20:39.564Z,61.70
2018-01-19T08:21:38.898Z,56.00
2018-01-19T08:22:40.090Z,57.80
2018-01-19T08:23:38.607Z,63.90
2018-01-19T08:24:39.426Z,54.20
2018-01-19T08:25:39.313Z,64.70
2018-01-19T08:26:39.282Z,56.70
2018-01-19T08:27:38.601Z,58.90
2018-01-19T08:28:39.485Z,55.40
2018-01-19T08:29:38.909Z,63.90
2018-01-19T08:30:38.238Z,54.80
2018-01-19T08:31:39.169Z,55.40
2018-01-19T08:32:38.730Z,52.20
2018-01-19T08:33:38.639Z,59.90
2018-01-19T08:34:39.514Z,61.00
2018-01-19T08:35:39.397Z,66.50
2018-01-19T08:36:38.866Z,71.50
2018-01-19T08:37:39.648Z,57.30
2018-01-19T08:39:00.985Z,62.40
2018-01-19T08:40:01.952Z,55.10
2018-01-19T08:41:01.605Z,60.40
2018-01-19T08:42:01.080Z,67.50
2018-01-19T08:43:01.683Z,64.80
2018-01-19T08:44:02.982Z,76.20
2018-01-19T08:45:01.785Z,68.40
2018-01-19T08:46:01.631Z,72.70
2018-01-19T08:47:01.593Z,82.50
2018-01-19T08:48:01.023Z,79.60
2018-01-19T08:49:01.920Z,73.90
2018-01-19T08:50:01.519Z,74.50
2018-01-19T08:51:01.216Z,72.90
2018-01-19T08:52:01.799Z,72.20
2018-01-19T08:53:01.228Z,75.10
2018-01-19T08:54:01.750Z,72.50
2018-01-19T08:55:01.873Z,67.10
2018-01-19T08:56:01.938Z,65.40
2018-01-19T08:57:02.308Z,72.50
2018-01-19T08:58:01.230Z,78.30
2018-01-19T08:59:01.909Z,78.80
2018-01-19T09:00:01.821Z,74.60
2018-01-19T09:01:01.322Z,75.00
2018-01-19T09:02:01.382Z,69.10
2018-01-19T09:03:01.545Z,75.60
2018-01-19T09:04:01.009Z,75.10
2018-01-19T09:05:02.479Z,78.30
2018-01-19T09:06:01.302Z,82.80
2018-01-19T09:07:01.081Z,83.70
2018-01-19T09:08:01.943Z,81.70
2018-01-19T09:09:02.218Z,83.20
2018-01-19T09:10:02.125Z,80.00
2018-01-19T09:11:02.187Z,67.40
2018-01-19T09:12:02.084Z,74.70
2018-01-19T09:13:01.995Z,76.00
2018-01-19T09:14:01.742Z,78.60
2018-01-19T09:15:01.326Z,81.00
2018-01-19T09:16:01.328Z,83.70
2018-01-19T09:17:02.177Z,73.90
2018-01-19T09:18:02.045Z,78.60
2018-01-19T09:19:01.375Z,78.20
2018-01-19T09:20:01.293Z,79.80
2018-01-19T09:21:01.195Z,86.60
2018-01-19T09:22:02.082Z,72.40
2018-01-19T09:23:01.477Z,74.10
2018-01-19T09:24:01.292Z,77.60
2018-01-19T09:25:01.287Z,83.40
2018-01-19T09:26:01.991Z,73.50
2018-01-19T09:27:01.394Z,76.90
2018-01-19T09:28:01.431Z,73.60
2018-01-19T09:29:00.982Z,73.00
2018-01-19T09:30:01.458Z,70.00
2018-01-19T09:31:01.183Z,65.80
2018-01-19T09:32:02.345Z,66.40
2018-01-19T09:33:01.016Z,64.30
2018-01-19T09:34:01.716Z,53.70
2018-01-19T09:35:01.481Z,50.40
2018-01-19T09:36:00.870Z,41.60
2018-01-19T09:37:01.853Z,45.70
2018-01-19T09:38:01.703Z,44.90
2018-01-19T09:39:00.990Z,45.50
2018-01-19T09:40:01.493Z,46.30
2018-01-19T09:41:23.597Z,43.10
2018-01-19T09:42:23.581Z,36.10
2018-01-19T09:43:23.620Z,40.30
2018-01-19T09:44:24.137Z,39.00
2018-01-19T09:45:24.052Z,35.60
2018-01-19T09:46:23.731Z,39.30
2018-01-19T09:47:23.214Z,44.70
2018-01-19T09:48:24.274Z,39.10
2018-01-19T09:49:24.108Z,38.90
2018-01-19T09:50:23.407Z,33.20
2018-01-19T09:51:24.751Z,33.70
2018-01-19T09:52:23.549Z,39.80
2018-01-19T09:53:24.548Z,36.40
2018-01-19T09:54:24.282Z,39.60
2018-01-19T09:55:23.610Z,39.60
2018-01-19T09:56:23.340Z,42.00
2018-01-19T09:57:24.426Z,31.90
2018-01-19T09:58:46.309Z,36.50
2018-01-19T09:59:45.951Z,35.00
2018-01-19T10:00:46.744Z,28.80
2018-01-19T10:02:07.704Z,32.90
2018-01-19T10:03:08.703Z,34.20
2018-01-19T10:04:08.742Z,34.80
2018-01-19T10:05:08.641Z,35.50
2018-01-19T10:06:08.428Z,35.50
2018-01-19T10:07:07.859Z,34.20
2018-01-19T10:08:08.744Z,33.40
2018-01-19T10:09:08.347Z,33.00
2018-01-19T10:10:07.820Z,28.60
2018-01-19T10:11:08.275Z,30.10
2018-01-19T10:12:07.667Z,33.50
2018-01-19T10:13:08.454Z,29.80
2018-01-19T10:14:08.054Z,28.30
2018-01-19T10:15:08.873Z,29.00
2018-01-19T10:16:08.647Z,24.30
2018-01-19T10:17:08.736Z,27.40
2018-01-19T10:18:08.747Z,26.70
2018-01-19T10:19:08.434Z,27.40
2018-01-19T10:20:29.544Z,24.40
2018-01-19T10:21:29.211Z,25.80
2018-01-19T10:22:29.761Z,24.30
2018-01-19T10:23:29.573Z,25.50
2018-01-19T10:24:29.394Z,25.00
2018-01-19T10:25:29.416Z,24.10
2018-01-19T10:26:28.870Z,22.30
2018-01-19T10:27:29.790Z,23.00
2018-01-19T10:28:29.254Z,19.50
2018-01-19T10:29:29.989Z,20.10
2018-01-19T10:30:30.072Z,20.50
2018-01-19T10:31:29.516Z,22.70
2018-01-19T10:32:29.460Z,19.60
2018-01-19T10:33:28.947Z,22.80
2018-01-19T10:34:29.413Z,22.90
2018-01-19T10:35:30.203Z,23.10
2018-01-19T10:36:29.555Z,22.60
2018-01-19T10:37:29.604Z,22.40
2018-01-19T10:38:29.382Z,22.30
2018-01-19T10:39:29.915Z,22.90
2018-01-19T10:40:29.923Z,18.80
2018-01-19T10:41:29.838Z,20.90
2018-01-19T10:42:29.995Z,17.20
2018-01-19T10:43:29.618Z,19.90
2018-01-19T10:44:29.917Z,18.20
2018-01-19T10:45:29.612Z,16.60
2018-01-19T10:46:29.200Z,17.70
2018-01-19T10:47:30.158Z,16.50
2018-01-19T10:48:29.589Z,17.20
2018-01-19T10:49:29.288Z,16.50
2018-01-19T10:50:30.290Z,15.70
2018-01-19T10:51:29.845Z,15.90
2018-01-19T10:52:29.810Z,12.70
2018-01-19T10:53:29.331Z,14.60
2018-01-19T10:54:29.300Z,14.80
2018-01-19T10:55:30.034Z,15.30
2018-01-19T10:56:30.487Z,16.40
2018-01-19T10:57:29.430Z,14.00
2018-01-19T10:58:28.924Z,16.20
2018-01-19T10:59:29.280Z,17.90
2018-01-19T11:00:29.752Z,15.20
2018-01-19T11:01:29.499Z,15.20
2018-01-19T11:02:29.351Z,17.00
2018-01-19T11:03:51.729Z,14.40
2018-01-19T11:04:52.387Z,22.10
2018-01-19T11:05:52.152Z,19.70
2018-01-19T11:06:52.169Z,21.80
2018-01-19T11:07:52.070Z,21.50
2018-01-19T11:08:51.642Z,19.50
2018-01-19T11:09:52.202Z,22.80
2018-01-19T11:10:51.692Z,20.70
2018-01-19T11:11:51.562Z,23.00
2018-01-19T11:12:52.571Z,24.60
2018-01-19T11:13:52.383Z,25.10
2018-01-19T11:14:52.288Z,23.70
2018-01-19T11:15:52.017Z,24.90
2018-01-19T11:16:51.715Z,21.70
2018-01-19T11:17:51.617Z,25.60
2018-01-19T11:18:52.897Z,23.40
2018-01-19T11:19:51.702Z,19.80
2018-01-19T11:20:51.664Z,26.40
2018-01-19T11:21:51.988Z,23.30
2018-01-19T11:22:51.721Z,28.60
2018-01-19T11:24:13.510Z,33.90
2018-01-19T11:25:14.133Z,22.70
2018-01-19T11:26:14.808Z,26.40
2018-01-19T11:27:35.815Z,24.90
2018-01-19T11:28:36.873Z,25.00
2018-01-19T11:29:36.659Z,24.20
2018-01-19T11:30:36.989Z,28.20
2018-01-19T11:31:36.399Z,25.20
2018-01-19T11:32:36.239Z,24.00
2018-01-19T11:33:37.018Z,25.30
2018-01-19T11:34:36.516Z,25.10
2018-01-19T11:35:36.502Z,27.00
2018-01-19T11:36:58.246Z,24.70
2018-01-19T11:37:57.818Z,25.50
2018-01-19T11:38:58.932Z,27.60
2018-01-19T11:39:58.243Z,28.80
2018-01-19T11:40:58.234Z,25.70
2018-01-19T11:42:19.329Z,26.20
2018-01-19T11:43:20.143Z,22.40
2018-01-19T11:44:19.812Z,24.00
2018-01-19T11:45:19.738Z,22.00
2018-01-19T11:46:20.544Z,25.10
2018-01-19T11:47:20.325Z,20.20
2018-01-19T11:48:20.199Z,22.00
2018-01-19T11:49:19.842Z,23.90
2018-01-19T11:50:20.683Z,21.90
2018-01-19T11:51:20.505Z,19.90
2018-01-19T11:52:20.035Z,18.00
2018-01-19T11:53:19.542Z,16.90
2018-01-19T11:54:20.083Z,17.00
2018-01-19T11:55:19.630Z,18.90
2018-01-19T11:56:20.386Z,20.90
2018-01-19T11:57:20.460Z,15.60
2018-01-19T11:58:42.200Z,14.80
2018-01-19T11:59:42.267Z,14.60
2018-01-19T12:00:42.162Z,17.10
2018-01-19T12:01:42.152Z,17.50
2018-01-19T12:02:41.849Z,12.70
2018-01-19T12:03:42.436Z,15.30
2018-01-19T12:04:42.487Z,17.20
2018-01-19T12:05:43.701Z,14.60
2018-01-19T12:06:41.200Z,11.00
2018-01-19T12:07:42.362Z,14.60
2018-01-19T12:08:42.039Z,13.30
2018-01-19T12:09:41.963Z,14.80
2018-01-19T12:10:41.884Z,14.50
2018-01-19T12:12:02.881Z,15.00
2018-01-19T12:13:04.158Z,14.40
2018-01-19T12:14:02.829Z,13.10
2018-01-19T12:15:02.501Z,21.60
2018-01-19T12:16:04.373Z,18.10
2018-01-19T12:17:02.962Z,18.30
2018-01-19T12:18:23.608Z,12.90
2018-01-19T12:19:24.588Z,11.70
2018-01-19T12:20:24.031Z,10.80
2018-01-19T12:21:24.855Z,14.20
2018-01-19T12:23:07.315Z,16.50
2018-01-19T12:24:08.350Z,19.80
2018-01-19T12:25:08.243Z,13.30
2018-01-19T12:26:08.040Z,9.30
2018-01-19T12:27:08.192Z,10.20
2018-01-19T12:28:08.055Z,11.80
2018-01-19T12:29:55.903Z,10.20
2018-01-19T12:31:17.896Z,14.80
2018-01-19T12:32:19.017Z,11.10
2018-01-19T12:33:40.413Z,12.10
2018-01-19T12:34:40.978Z,10.10
2018-01-19T12:35:41.572Z,9.70
2018-01-19T12:36:40.157Z,11.10
2018-01-19T12:37:41.016Z,11.40
2018-01-19T12:38:40.414Z,9.00
2018-01-19T12:39:41.363Z,11.50
2018-01-19T12:40:40.691Z,14.90
2018-01-19T12:41:40.313Z,12.00
2018-01-19T12:42:41.037Z,11.80
2018-01-19T12:43:41.347Z,9.90
2018-01-19T12:44:41.519Z,9.40
2018-01-19T12:45:43.676Z,13.00
2018-01-19T12:46:40.732Z,11.30
2018-01-19T12:47:40.471Z,14.70
2018-01-19T12:48:41.515Z,10.70
2018-01-19T12:49:41.212Z,8.20
2018-01-19T12:50:40.987Z,11.00
2018-01-19T12:51:40.539Z,12.50
2018-01-19T12:52:40.970Z,12.50
2018-01-19T12:53:40.245Z,8.00
2018-01-19T12:54:40.962Z,8.60
2018-01-19T12:55:40.794Z,8.70
2018-01-19T12:56:40.361Z,10.20
2018-01-19T12:57:40.912Z,11.30
2018-01-19T12:58:40.462Z,12.60
2018-01-19T12:59:41.636Z,11.50
2018-01-19T13:00:40.034Z,9.20
2018-01-19T13:01:40.485Z,8.10
2018-01-19T13:02:41.665Z,8.80
2018-01-19T13:03:41.210Z,9.10
2018-01-19T13:04:42.584Z,8.20
2018-01-19T13:05:40.598Z,12.70
2018-01-19T13:06:41.409Z,10.40